Time;durP1;ratioP1;P1;durP2;ratioP2;P2;SDS_P1;SDS_P2;PMS_P1;PMS_P2;Temp;Humidity;BMP_temperature;BMP_pressure;BME280_temperature;BME280_humidity;BME280_pressure;Samples;Min_cycle;Max_cycle;Signal;HPM_P1;HPM_P2
2021/12/01 01:40:51;;;;;;;5.77;3.33;;;;;;;-145.19;100.00;57938.22;5009023;28;20110;-69
2021/12/01 01:43:18;;;;;;;4.37;3.03;;;;;;;-145.19;100.00;57938.22;5027286;28;20048;-69
2021/12/01 01:45:43;;;;;;;3.40;2.50;;;;;;;-145.19;100.00;57938.22;5026593;28;20503;-69
2021/12/01 01:48:11;;;;;;;5.40;2.33;;;;;;;-145.19;100.00;57938.22;5027155;28;20124;-69
2021/12/01 01:50:39;;;;;;;2.97;1.83;;;;;;;-145.19;100.00;57938.22;5026784;28;20116;-69
2021/12/01 01:53:17;;;;;;;2.10;1.60;;;;;;;-145.19;100.00;57938.22;5026715;28;20506;-69
2021/12/01 01:55:45;;;;;;;2.97;1.80;;;;;;;-145.19;100.00;57938.22;5026711;28;20635;-69
2021/12/01 01:58:13;;;;;;;4.83;2.53;;;;;;;-145.19;100.00;57938.22;5026481;28;20162;-69
2021/12/01 02:00:51;;;;;;;3.20;1.80;;;;;;;-145.19;100.00;57938.22;5026252;28;20263;-69
2021/12/01 02:03:19;;;;;;;4.53;2.50;;;;;;;-145.19;100.00;57938.22;5026899;28;20850;-69
2021/12/01 02:05:45;;;;;;;3.33;2.60;;;;;;;-145.19;100.00;57938.22;5026614;28;20145;-70
2021/12/01 02:08:19;;;;;;;6.10;3.67;;;;;;;-145.19;100.00;57938.22;5026855;28;20037;-69
2021/12/01 02:10:48;;;;;;;6.63;3.30;;;;;;;-145.19;100.00;57938.22;5026774;28;20041;-69
2021/12/01 02:13:16;;;;;;;5.73;3.17;;;;;;;-145.19;100.00;57938.22;5026800;28;21056;-69
2021/12/01 02:15:44;;;;;;;5.80;3.20;;;;;;;-145.19;100.00;57938.22;5026398;28;20271;-69
2021/12/01 02:18:09;;;;;;;7.20;3.20;;;;;;;-145.19;100.00;57938.22;5026451;28;20049;-69
2021/12/01 02:20:35;;;;;;;4.93;3.73;;;;;;;-145.19;100.00;57938.22;5038210;28;20262;-69
2021/12/01 02:23:00;;;;;;;4.83;3.60;;;;;;;-145.19;100.00;57938.22;5031785;28;20076;-69
2021/12/01 02:25:27;;;;;;;4.67;3.20;;;;;;;-145.19;100.00;57938.22;5025924;28;20091;-69
2021/12/01 02:27:52;;;;;;;5.73;3.83;;;;;;;-145.19;100.00;57938.22;5026416;28;20079;-69
2021/12/01 02:30:17;;;;;;;4.53;3.67;;;;;;;-145.19;100.00;57938.22;5026534;28;20282;-69
2021/12/01 02:32:43;;;;;;;6.20;3.23;;;;;;;-145.19;100.00;57938.22;5026372;28;20153;-69
2021/12/01 02:35:09;;;;;;;5.80;4.13;;;;;;;-145.19;100.00;57938.22;5026071;28;20086;-69
2021/12/01 02:37:37;;;;;;;4.30;2.77;;;;;;;-145.19;100.00;57938.22;5026992;28;20048;-69
2021/12/01 02:40:04;;;;;;;4.03;3.33;;;;;;;-145.19;100.00;57938.22;5026441;28;20044;-69
2021/12/01 02:42:30;;;;;;;4.93;3.53;;;;;;;-145.19;100.00;57938.22;5026063;28;20274;-69
2021/12/01 02:44:56;;;;;;;4.57;3.13;;;;;;;-145.19;100.00;57938.22;5025989;28;20270;-69
2021/12/01 02:47:23;;;;;;;4.87;3.23;;;;;;;-145.19;100.00;57938.22;5026147;28;20045;-69
2021/12/01 02:49:52;;;;;;;10.63;4.57;;;;;;;-145.19;100.00;57938.22;5026032;28;20263;-69
2021/12/01 02:52:17;;;;;;;8.83;4.43;;;;;;;-145.19;100.00;57938.22;5026073;28;20789;-69
2021/12/01 02:54:43;;;;;;;4.30;3.20;;;;;;;-145.19;100.00;57938.22;5025973;28;20267;-69
2021/12/01 02:57:08;;;;;;;5.57;3.83;;;;;;;-145.19;100.00;57938.22;5027000;28;20100;-69
2021/12/01 02:59:36;;;;;;;5.27;3.90;;;;;;;-145.19;100.00;57938.22;5025901;28;20040;-69
2021/12/01 03:02:02;;;;;;;5.63;3.97;;;;;;;-145.19;100.00;57938.22;5026007;28;20417;-69
2021/12/01 03:04:28;;;;;;;6.27;3.50;;;;;;;-145.19;100.00;57938.22;5025658;28;20267;-69
2021/12/01 03:06:56;;;;;;;4.63;3.63;;;;;;;-145.19;100.00;57938.22;5026096;28;20507;-68
2021/12/01 03:09:21;;;;;;;6.03;4.27;;;;;;;-145.19;100.00;57938.22;5026935;28;20366;-69
2021/12/01 03:11:49;;;;;;;4.37;3.27;;;;;;;-145.19;100.00;57938.22;5011822;28;20671;-68
2021/12/01 03:14:16;;;;;;;5.83;4.57;;;;;;;-145.19;100.00;57938.22;5030905;28;20045;-69
2021/12/01 03:16:43;;;;;;;4.13;2.90;;;;;;;-145.19;100.00;57938.22;5029576;28;20329;-69
2021/12/01 03:19:08;;;;;;;3.90;2.43;;;;;;;-145.19;100.00;57938.22;5029687;28;20267;-68
2021/12/01 03:21:39;;;;;;;3.93;2.60;;;;;;;-145.19;100.00;57938.22;5029076;28;20273;-69
2021/12/01 03:24:05;;;;;;;6.13;2.83;;;;;;;-145.19;100.00;57938.22;5030001;28;20042;-69
2021/12/01 03:26:31;;;;;;;4.30;3.03;;;;;;;-145.19;100.00;57938.22;5028908;28;20282;-69
2021/12/01 03:28:57;;;;;;;3.83;2.60;;;;;;;-145.19;100.00;57938.22;5029861;28;20378;-68
2021/12/01 03:31:23;;;;;;;4.47;2.50;;;;;;;-145.19;100.00;57938.22;5028925;28;20045;-68
2021/12/01 03:33:48;;;;;;;2.87;2.27;;;;;;;-145.19;100.00;57938.22;5030172;28;20064;-68
2021/12/01 03:36:14;;;;;;;3.23;2.43;;;;;;;-145.19;100.00;57938.22;5029224;28;20113;-68
2021/12/01 03:38:39;;;;;;;5.17;3.03;;;;;;;-145.19;100.00;57938.22;5029568;28;20088;-68
2021/12/01 03:41:04;;;;;;;2.13;1.87;;;;;;;-145.19;100.00;57938.22;5029171;28;20038;-69
2021/12/01 03:43:30;;;;;;;2.47;1.97;;;;;;;-145.19;100.00;57938.22;5034232;28;20033;-68
2021/12/01 03:45:55;;;;;;;2.40;2.20;;;;;;;-145.19;100.00;57938.22;5029325;28;20448;-68
2021/12/01 03:48:22;;;;;;;2.50;2.23;;;;;;;-145.19;100.00;57938.22;5030164;28;20044;-69
2021/12/01 03:50:49;;;;;;;4.37;2.70;;;;;;;-145.19;100.00;57938.22;5029109;28;20040;-69
2021/12/01 03:53:17;;;;;;;2.60;2.40;;;;;;;-145.19;100.00;57938.22;5028894;28;20279;-69
2021/12/01 03:55:43;;;;;;;3.00;2.60;;;;;;;-145.19;100.00;57938.22;5028605;28;20283;-69
2021/12/01 03:58:08;;;;;;;3.10;2.80;;;;;;;-145.19;100.00;57938.22;5011299;28;20320;-69
2021/12/01 04:00:34;;;;;;;3.53;3.10;;;;;;;-145.19;100.00;57938.22;5028513;28;20029;-69
2021/12/01 04:02:59;;;;;;;3.87;3.10;;;;;;;-145.19;100.00;57938.22;5027715;28;20029;-68
2021/12/01 04:05:25;;;;;;;4.30;3.90;;;;;;;-145.19;100.00;57938.22;5028594;28;20037;-69
2021/12/01 04:07:50;;;;;;;5.57;4.50;;;;;;;-145.19;100.00;57938.22;5029002;28;20068;-69
2021/12/01 04:10:16;;;;;;;6.67;4.30;;;;;;;-145.19;100.00;57938.22;5028908;28;20041;-69
2021/12/01 04:12:43;;;;;;;5.67;5.03;;;;;;;-145.19;100.00;57938.22;5028843;28;20128;-69
2021/12/01 04:15:10;;;;;;;7.87;6.53;;;;;;;-145.19;100.00;57938.22;5028344;28;20278;-69
2021/12/01 04:17:36;;;;;;;8.63;7.10;;;;;;;-145.19;100.00;57938.22;5028402;28;20267;-69
2021/12/01 04:20:03;;;;;;;9.13;7.47;;;;;;;-145.19;100.00;57938.22;5028127;28;21252;-68
2021/12/01 04:22:28;;;;;;;8.17;6.80;;;;;;;-145.19;100.00;57938.22;5029165;28;20502;-69
2021/12/01 04:24:54;;;;;;;9.57;7.57;;;;;;;-145.19;100.00;57938.22;5028341;28;20324;-70
2021/12/01 04:27:19;;;;;;;9.77;7.97;;;;;;;-145.19;100.00;57938.22;5028304;28;20180;-69
2021/12/01 04:29:44;;;;;;;6.60;5.73;;;;;;;-145.19;100.00;57938.22;5028010;28;20030;-69
2021/12/01 04:32:10;;;;;;;8.83;6.80;;;;;;;-145.19;100.00;57938.22;5028743;28;20095;-69
2021/12/01 04:34:36;;;;;;;7.50;5.60;;;;;;;-145.19;100.00;57938.22;5028368;28;20045;-69
2021/12/01 04:37:02;;;;;;;7.23;5.10;;;;;;;-145.19;100.00;57938.22;5028867;28;20048;-68
2021/12/01 04:39:28;;;;;;;6.50;5.63;;;;;;;-145.19;100.00;57938.22;5028201;28;20283;-69
2021/12/01 04:41:56;;;;;;;6.27;5.37;;;;;;;-145.19;100.00;57938.22;5028120;28;20041;-68
2021/12/01 04:44:23;;;;;;;6.83;5.03;;;;;;;-145.19;100.00;57938.22;5028614;28;20044;-68
2021/12/01 04:46:52;;;;;;;8.00;4.93;;;;;;;-145.19;100.00;57938.22;5028013;28;20278;-68
2021/12/01 04:49:21;;;;;;;6.60;5.07;;;;;;;-145.19;100.00;57938.22;5028094;28;20351;-68
2021/12/01 04:51:50;;;;;;;7.17;5.87;;;;;;;-145.19;100.00;57938.22;5027415;28;20285;-68
2021/12/01 04:54:16;;;;;;;4.90;3.87;;;;;;;-145.19;100.00;57938.22;5028217;28;20279;-68
2021/12/01 04:56:44;;;;;;;6.33;5.33;;;;;;;-145.19;100.00;57938.22;5027333;28;20639;-68
2021/12/01 04:59:10;;;;;;;6.93;5.10;;;;;;;-145.19;100.00;57938.22;5028615;28;20315;-68
2021/12/01 05:01:36;;;;;;;7.13;4.70;;;;;;;-145.19;100.00;57938.22;5027160;28;20306;-68
2021/12/01 05:04:02;;;;;;;6.77;5.43;;;;;;;-145.19;100.00;57938.22;5028177;28;20049;-68
2021/12/01 05:06:28;;;;;;;6.73;4.97;;;;;;;-145.19;100.00;57938.22;5027244;28;20342;-68
2021/12/01 05:08:53;;;;;;;6.47;5.43;;;;;;;-145.19;100.00;57938.22;5028050;28;20283;-68
2021/12/01 05:11:19;;;;;;;10.03;5.87;;;;;;;-145.19;100.00;57938.22;5027590;28;20042;-68
2021/12/01 05:13:44;;;;;;;8.50;6.77;;;;;;;-145.19;100.00;57938.22;5027682;28;20144;-68
2021/12/01 05:16:09;;;;;;;6.77;5.77;;;;;;;-145.19;100.00;57938.22;5028184;28;20037;-68
2021/12/01 05:18:35;;;;;;;7.27;6.40;;;;;;;-145.19;100.00;57938.22;5027382;28;20065;-68
2021/12/01 05:21:00;;;;;;;9.37;6.83;;;;;;;-145.19;100.00;57938.22;5027518;28;20037;-68
2021/12/01 05:23:26;;;;;;;8.60;6.13;;;;;;;-145.19;100.00;57938.22;5025723;28;20042;-68
2021/12/01 05:25:51;;;;;;;7.93;6.47;;;;;;;-145.19;100.00;57938.22;5025527;28;20125;-68
2021/12/01 05:28:17;;;;;;;10.23;7.93;;;;;;;-145.19;100.00;57938.22;5027204;28;20050;-68
2021/12/01 05:30:45;;;;;;;8.93;7.93;;;;;;;-145.19;100.00;57938.22;5027516;28;20043;-68
2021/12/01 05:33:11;;;;;;;8.40;6.57;;;;;;;-145.19;100.00;57938.22;5029898;28;20061;-68
2021/12/01 05:35:37;;;;;;;11.37;7.00;;;;;;;-145.19;100.00;57938.22;5035211;28;20274;-68
2021/12/01 05:38:05;;;;;;;9.73;7.23;;;;;;;-145.19;100.00;57938.22;5043878;28;20361;-68
2021/12/01 05:40:32;;;;;;;9.53;6.53;;;;;;;-145.19;100.00;57938.22;5046666;28;20037;-68
2021/12/01 05:42:58;;;;;;;8.23;7.30;;;;;;;-145.19;100.00;57938.22;5035028;28;20286;-68
2021/12/01 05:45:24;;;;;;;7.50;6.70;;;;;;;-145.19;100.00;57938.22;5026730;28;20271;-68
2021/12/01 05:47:49;;;;;;;9.07;5.80;;;;;;;-145.19;100.00;57938.22;5044182;28;20049;-68
2021/12/01 05:50:16;;;;;;;10.93;7.00;;;;;;;-145.19;100.00;57938.22;5047090;28;20485;-68
2021/12/01 05:52:41;;;;;;;7.60;6.80;;;;;;;-145.19;100.00;57938.22;5046528;28;20028;-68
2021/12/01 05:55:08;;;;;;;10.63;7.73;;;;;;;-145.19;100.00;57938.22;5046554;28;20302;-68
2021/12/01 05:57:33;;;;;;;8.17;7.37;;;;;;;-145.19;100.00;57938.22;5035866;28;20406;-69
2021/12/01 06:00:01;;;;;;;9.53;7.77;;;;;;;-145.19;100.00;57938.22;5042531;28;20259;-68
2021/12/01 06:02:27;;;;;;;8.60;7.73;;;;;;;-145.19;100.00;57938.22;5046579;28;20091;-68
2021/12/01 06:04:53;;;;;;;7.93;6.37;;;;;;;-145.19;100.00;57938.22;5046792;28;20345;-68
2021/12/01 06:07:19;;;;;;;6.43;5.47;;;;;;;-145.19;100.00;57938.22;5046535;28;20357;-68
2021/12/01 06:09:44;;;;;;;7.03;5.53;;;;;;;-145.19;100.00;57938.22;5028649;28;20564;-68
2021/12/01 06:12:13;;;;;;;9.63;7.10;;;;;;;-145.19;100.00;57938.22;5044617;28;20139;-68
2021/12/01 06:14:43;;;;;;;7.13;6.20;;;;;;;-145.19;100.00;57938.22;5045484;28;20045;-68
2021/12/01 06:17:10;;;;;;;8.03;6.43;;;;;;;-145.19;100.00;57938.22;5040938;28;20278;-68
2021/12/01 06:19:37;;;;;;;8.17;6.47;;;;;;;-145.19;100.00;57938.22;5044537;28;20266;-68
2021/12/01 06:22:03;;;;;;;7.10;6.13;;;;;;;-145.19;100.00;57938.22;5045302;28;20748;-68
2021/12/01 06:24:28;;;;;;;9.47;7.00;;;;;;;-145.19;100.00;57938.22;5046738;28;20824;-69
2021/12/01 06:26:54;;;;;;;6.33;5.63;;;;;;;-145.19;100.00;57938.22;5045385;28;20274;-68
2021/12/01 06:29:19;;;;;;;6.43;5.77;;;;;;;-145.19;100.00;57938.22;5046009;28;20533;-68
2021/12/01 06:31:45;;;;;;;5.53;4.43;;;;;;;-145.19;100.00;57938.22;5027829;28;20565;-68
2021/12/01 06:34:10;;;;;;;7.93;5.57;;;;;;;-145.19;100.00;57938.22;5046229;28;20405;-68
2021/12/01 06:36:35;;;;;;;6.67;5.37;;;;;;;-145.19;100.00;57938.22;5045646;28;20413;-68
2021/12/01 06:39:03;;;;;;;6.73;5.20;;;;;;;-145.19;100.00;57938.22;5046591;28;20041;-67
2021/12/01 06:41:29;;;;;;;7.97;5.83;;;;;;;-145.19;100.00;57938.22;5046064;28;20037;-68
2021/12/01 06:43:54;;;;;;;7.27;4.73;;;;;;;-145.19;100.00;57938.22;5029953;28;20293;-68
2021/12/01 06:46:21;;;;;;;6.87;5.30;;;;;;;-145.19;100.00;57938.22;5050168;28;20116;-68
2021/12/01 06:48:46;;;;;;;8.83;4.97;;;;;;;-145.19;100.00;57938.22;5049060;28;20068;-69
2021/12/01 06:51:12;;;;;;;6.00;4.63;;;;;;;-145.19;100.00;57938.22;5043785;28;20310;-68
2021/12/01 06:53:37;;;;;;;6.13;4.87;;;;;;;-145.19;100.00;57938.22;5048839;28;20052;-68
2021/12/01 06:56:03;;;;;;;8.93;5.30;;;;;;;-145.19;100.00;57938.22;5048823;28;20076;-68
2021/12/01 06:58:28;;;;;;;6.67;4.90;;;;;;;-145.19;100.00;57938.22;5048930;28;20080;-68
2021/12/01 07:00:53;;;;;;;6.77;3.53;;;;;;;-145.19;100.00;57938.22;5048884;28;20497;-68
2021/12/01 07:03:19;;;;;;;7.57;5.80;;;;;;;-145.19;100.00;57938.22;5048998;28;20084;-68
2021/12/01 07:05:44;;;;;;;6.10;4.70;;;;;;;-145.19;100.00;57938.22;5046445;28;20037;-68
2021/12/01 07:08:10;;;;;;;8.77;5.03;;;;;;;-145.19;100.00;57938.22;5048694;28;20053;-69
2021/12/01 07:10:38;;;;;;;9.43;4.77;;;;;;;-145.19;100.00;57938.22;5049315;28;20489;-69
2021/12/01 07:13:03;;;;;;;10.07;5.77;;;;;;;-145.19;100.00;57938.22;5049918;28;20085;-69
2021/12/01 07:15:29;;;;;;;6.07;4.40;;;;;;;-145.19;100.00;57938.22;5049212;28;20369;-69
2021/12/01 07:17:54;;;;;;;8.83;5.37;;;;;;;-145.19;100.00;57938.22;5049271;28;20029;-68
2021/12/01 07:20:20;;;;;;;7.73;4.77;;;;;;;-145.19;100.00;57938.22;5031483;28;20041;-68
2021/12/01 07:22:45;;;;;;;9.37;6.07;;;;;;;-145.19;100.00;57938.22;5049285;28;20049;-68
2021/12/01 07:25:12;;;;;;;9.63;5.67;;;;;;;-145.19;100.00;57938.22;5031872;28;20049;-70
2021/12/01 07:27:38;;;;;;;10.57;5.00;;;;;;;-145.19;100.00;57938.22;5048833;28;20075;-69
2021/12/01 07:30:05;;;;;;;8.17;4.57;;;;;;;-145.19;100.00;57938.22;5049495;28;20301;-68
2021/12/01 07:32:31;;;;;;;11.13;5.10;;;;;;;-145.19;100.00;57938.22;5048364;28;20198;-69
2021/12/01 07:34:57;;;;;;;8.37;5.63;;;;;;;-145.19;100.00;57938.22;5031622;28;20373;-69
2021/12/01 07:37:22;;;;;;;10.80;6.23;;;;;;;-145.19;100.00;57938.22;5029295;28;20128;-68
2021/12/01 07:39:48;;;;;;;8.07;4.50;;;;;;;-145.19;100.00;57938.22;5029479;28;20069;-69
2021/12/01 07:42:15;;;;;;;11.30;5.60;;;;;;;-145.19;100.00;57938.22;5029068;28;20130;-69
2021/12/01 07:44:40;;;;;;;10.50;5.33;;;;;;;-145.19;100.00;57938.22;5029251;28;20562;-69
2021/12/01 07:47:06;;;;;;;9.23;4.13;;;;;;;-145.19;100.00;57938.22;5011162;28;20362;-69
2021/12/01 07:49:33;;;;;;;10.73;5.37;;;;;;;-145.19;100.00;57938.22;5029187;28;20038;-69
2021/12/01 07:51:59;;;;;;;10.27;5.50;;;;;;;-145.19;100.00;57938.22;5029187;28;20041;-69
2021/12/01 07:54:24;;;;;;;10.50;5.57;;;;;;;-145.19;100.00;57938.22;5028442;28;20267;-69
2021/12/01 07:56:50;;;;;;;11.47;5.13;;;;;;;-145.19;100.00;57938.22;5028789;28;20068;-69
2021/12/01 07:59:15;;;;;;;13.37;4.70;;;;;;;-145.19;100.00;57938.22;5029154;28;20410;-69
2021/12/01 08:01:44;;;;;;;10.20;4.53;;;;;;;-145.19;100.00;57938.22;5027566;28;20518;-69
2021/12/01 08:04:11;;;;;;;11.63;6.43;;;;;;;-145.19;100.00;57938.22;5026982;28;20048;-69
2021/12/01 08:06:37;;;;;;;10.30;4.40;;;;;;;-145.19;100.00;57938.22;5019766;28;20511;-69
2021/12/01 08:09:04;;;;;;;9.93;4.83;;;;;;;-145.19;100.00;57938.22;5008774;28;20371;-69
2021/12/01 08:11:29;;;;;;;9.60;4.37;;;;;;;-145.19;100.00;57938.22;5012919;28;20286;-69
2021/12/01 08:13:55;;;;;;;11.50;4.70;;;;;;;-145.19;100.00;57938.22;5028341;28;20792;-69
2021/12/01 08:16:20;;;;;;;11.50;4.93;;;;;;;-145.19;100.00;57938.22;5028240;28;20545;-70
2021/12/01 08:18:51;;;;;;;10.70;5.37;;;;;;;-145.19;100.00;57938.22;5048242;28;20044;-69
2021/12/01 08:21:19;;;;;;;11.07;4.30;;;;;;;-145.19;100.00;57938.22;5036379;28;20507;-69
2021/12/01 08:23:45;;;;;;;17.87;4.97;;;;;;;-145.19;100.00;57938.22;5041723;28;20279;-69
2021/12/01 08:29:38;;;;;;;9.27;4.37;;;;;;;-145.19;100.00;57938.22;5096257;22;20255;-69
2021/12/01 08:32:04;;;;;;;11.10;3.57;;;;;;;-145.19;100.00;57938.22;5073124;28;20290;-68
2021/12/01 08:34:29;;;;;;;16.20;2.73;;;;;;;-145.19;100.00;57938.22;5087163;28;20631;-71
2021/12/01 08:36:55;;;;;;;8.10;1.97;;;;;;;-145.19;100.00;57938.22;5087472;28;20486;-71
2021/12/01 08:39:20;;;;;;;7.27;1.87;;;;;;;-145.19;100.00;57938.22;5062389;28;20036;-71
2021/12/01 08:41:46;;;;;;;11.10;3.10;;;;;;;-145.19;100.00;57938.22;5087402;28;20035;-72
2021/12/01 08:44:11;;;;;;;4.33;1.87;;;;;;;-145.19;100.00;57938.22;5087822;28;20040;-71
2021/12/01 08:46:37;;;;;;;9.67;1.93;;;;;;;-145.19;100.00;57938.22;5087188;28;20036;-71
2021/12/01 08:49:03;;;;;;;12.53;2.53;;;;;;;-145.19;100.00;57938.22;5067535;28;20095;-71
2021/12/01 08:51:30;;;;;;;8.67;2.03;;;;;;;-145.19;100.00;57938.22;5067644;28;20042;-71
2021/12/01 08:53:56;;;;;;;8.53;1.80;;;;;;;-145.19;100.00;57938.22;5068316;28;20058;-71
2021/12/01 08:56:21;;;;;;;11.00;2.03;;;;;;;-145.19;100.00;57938.22;5082887;28;20609;-71
2021/12/01 08:58:46;;;;;;;7.27;2.13;;;;;;;-145.19;100.00;57938.22;5082225;28;20070;-70
2021/12/01 09:01:12;;;;;;;9.27;1.70;;;;;;;-145.19;100.00;57938.22;5083657;28;20053;-70
2021/12/01 09:03:37;;;;;;;17.60;3.43;;;;;;;-145.19;100.00;57938.22;5085594;28;20064;-70
2021/12/01 09:06:03;;;;;;;13.90;2.50;;;;;;;-145.19;100.00;57938.22;5085676;28;20024;-70
2021/12/01 09:08:28;;;;;;;13.87;1.87;;;;;;;-145.19;100.00;57938.22;5085199;28;20093;-71
2021/12/01 09:10:56;;;;;;;12.10;1.77;;;;;;;-145.19;100.00;57938.22;5084657;28;20051;-72
2021/12/01 09:13:24;;;;;;;14.57;1.53;;;;;;;-145.19;100.00;57938.22;5085028;28;20109;-70
2021/12/01 09:15:52;;;;;;;4.43;1.17;;;;;;;-145.19;100.00;57938.22;5085503;28;20741;-70
2021/12/01 09:18:17;;;;;;;10.00;1.90;;;;;;;-145.19;100.00;57938.22;5085558;28;20296;-73
2021/12/01 09:20:43;;;;;;;12.17;1.70;;;;;;;-145.19;100.00;57938.22;5085133;28;20337;-70
2021/12/01 09:23:09;;;;;;;10.97;1.40;;;;;;;-145.19;100.00;57938.22;5085254;28;20580;-70
2021/12/01 09:25:34;;;;;;;9.27;1.10;;;;;;;-145.19;100.00;57938.22;5085124;28;20043;-70
2021/12/01 09:28:00;;;;;;;5.57;1.10;;;;;;;-145.19;100.00;57938.22;5085241;28;20036;-73
2021/12/01 09:30:26;;;;;;;16.23;1.80;;;;;;;-145.19;100.00;57938.22;5075934;28;20064;-70
2021/12/01 09:32:51;;;;;;;10.80;1.77;;;;;;;-145.19;100.00;57938.22;5077155;28;20044;-71
2021/12/01 09:35:17;;;;;;;13.13;1.10;;;;;;;-145.19;100.00;57938.22;5083863;28;20040;-70
2021/12/01 09:37:42;;;;;;;4.60;1.40;;;;;;;-145.19;100.00;57938.22;5084595;28;20044;-71
2021/12/01 09:40:13;;;;;;;12.70;0.90;;;;;;;-145.19;100.00;57938.22;5085378;28;20044;-71
2021/12/01 09:42:43;;;;;;;5.03;0.80;;;;;;;-145.19;100.00;57938.22;5084701;28;20385;-70
2021/12/01 09:45:10;;;;;;;4.63;1.23;;;;;;;-145.19;100.00;57938.22;5084661;28;20323;-70
2021/12/01 09:47:35;;;;;;;4.27;0.90;;;;;;;-145.19;100.00;57938.22;5083742;28;20265;-70
2021/12/01 09:50:01;;;;;;;6.47;1.03;;;;;;;-145.19;100.00;57938.22;5066270;28;20264;-70
2021/12/01 09:52:27;;;;;;;7.07;1.00;;;;;;;-145.19;100.00;57938.22;5081559;28;20050;-70
2021/12/01 09:54:52;;;;;;;9.87;0.93;;;;;;;-145.19;100.00;57938.22;5083752;28;20496;-70
2021/12/01 09:57:18;;;;;;;9.37;1.57;;;;;;;-145.19;100.00;57938.22;5084515;28;20412;-70
2021/12/01 09:59:44;;;;;;;8.07;1.07;;;;;;;-145.19;100.00;57938.22;5065761;28;20474;-71
2021/12/01 10:02:11;;;;;;;8.27;1.20;;;;;;;-145.19;100.00;57938.22;5084542;28;20059;-70
2021/12/01 10:04:36;;;;;;;4.70;1.10;;;;;;;-145.19;100.00;57938.22;5083437;28;20047;-70
2021/12/01 10:07:26;;;;;;;7.23;2.07;;;;;;;-145.19;100.00;57938.22;5083390;28;20276;-70
2021/12/01 10:09:56;;;;;;;2.93;0.97;;;;;;;-145.19;100.00;57938.22;5077791;28;20036;-70
2021/12/01 10:12:23;;;;;;;6.00;0.87;;;;;;;-145.19;100.00;57938.22;5083819;28;20272;-70
2021/12/01 10:14:51;;;;;;;11.47;1.37;;;;;;;-145.19;100.00;57938.22;5083986;28;20269;-70
2021/12/01 10:17:31;;;;;;;5.27;0.90;;;;;;;-145.19;100.00;57938.22;5063071;28;20626;-70
2021/12/01 10:20:15;;;;;;;3.23;0.90;;;;;;;-145.19;100.00;57938.22;5078194;28;20345;-71
2021/12/01 10:23:13;;;;;;;19.83;1.53;;;;;;;-145.19;100.00;57938.22;5083437;28;20273;-70
2021/12/01 10:25:41;;;;;;;10.27;0.97;;;;;;;-145.19;100.00;57938.22;5082986;28;20268;-71
2021/12/01 10:28:07;;;;;;;8.40;1.10;;;;;;;-145.19;100.00;57938.22;5084427;28;20281;-70
2021/12/01 10:30:41;;;;;;;9.40;1.00;;;;;;;-145.19;100.00;57938.22;5080177;28;20400;-71
2021/12/01 10:33:17;;;;;;;8.73;1.07;;;;;;;-145.19;100.00;57938.22;5081065;28;20048;-70
2021/12/01 10:35:43;;;;;;;5.28;1.00;;;;;;;-145.19;100.00;57938.22;5081892;28;20267;-71
2021/12/01 10:38:10;;;;;;;6.20;1.20;;;;;;;-145.19;100.00;57938.22;5080341;28;20048;-71
2021/12/01 10:40:37;;;;;;;7.23;0.90;;;;;;;-145.19;100.00;57938.22;5080919;28;20284;-71
2021/12/01 10:43:05;;;;;;;6.80;0.90;;;;;;;-145.19;100.00;57938.22;5082320;28;20272;-70
2021/12/01 10:45:34;;;;;;;3.77;0.60;;;;;;;-145.19;100.00;57938.22;5081631;28;20868;-70
2021/12/01 10:48:02;;;;;;;8.40;1.10;;;;;;;-145.19;100.00;57938.22;5082292;28;20648;-71
2021/12/01 10:50:30;;;;;;;10.03;1.20;;;;;;;-145.19;100.00;57938.22;5062882;28;20287;-70
2021/12/01 10:53:09;;;;;;;7.23;1.13;;;;;;;-145.19;100.00;57938.22;5064422;28;20276;-71
2021/12/01 10:55:41;;;;;;;8.47;1.53;;;;;;;-145.19;100.00;57938.22;5064141;28;20296;-71
2021/12/01 10:58:07;;;;;;;10.50;1.37;;;;;;;-145.19;100.00;57938.22;5064268;28;20301;-71
2021/12/01 11:00:39;;;;;;;14.57;1.57;;;;;;;-145.19;100.00;57938.22;5063818;28;20308;-70
2021/12/01 11:03:09;;;;;;;15.57;3.23;;;;;;;-145.19;100.00;57938.22;5083704;28;20492;-70
2021/12/01 11:05:38;;;;;;;10.93;1.63;;;;;;;-145.19;100.00;57938.22;5082883;28;20291;-71
2021/12/01 11:08:14;;;;;;;5.40;1.00;;;;;;;-145.19;100.00;57938.22;5065458;28;20665;-70
2021/12/01 11:10:41;;;;;;;7.40;1.13;;;;;;;-145.19;100.00;57938.22;5083537;28;20821;-69
2021/12/01 11:13:07;;;;;;;7.00;0.73;;;;;;;-145.19;100.00;57938.22;5083998;28;20769;-70
2021/12/01 11:15:51;;;;;;;4.90;1.03;;;;;;;-145.19;100.00;57938.22;5083810;28;20304;-70
2021/12/01 11:18:22;;;;;;;8.87;0.97;;;;;;;-145.19;100.00;57938.22;5070958;28;20314;-70
2021/12/01 11:20:50;;;;;;;14.80;1.23;;;;;;;-145.19;100.00;57938.22;5079646;28;20280;-70
2021/12/01 11:23:15;;;;;;;6.83;2.00;;;;;;;-145.19;100.00;57938.22;5077435;28;20277;-71
2021/12/01 11:25:42;;;;;;;11.90;0.90;;;;;;;-145.19;100.00;57938.22;5083098;28;20269;-70
2021/12/01 11:28:13;;;;;;;11.70;1.17;;;;;;;-145.19;100.00;57938.22;5083634;28;20444;-70
2021/12/01 11:30:40;;;;;;;6.40;1.70;;;;;;;-145.19;100.00;57938.22;5084021;28;20356;-70
2021/12/01 11:33:06;;;;;;;10.70;1.37;;;;;;;-145.19;100.00;57938.22;5089474;28;20280;-70
2021/12/01 11:35:32;;;;;;;13.07;1.10;;;;;;;-145.19;100.00;57938.22;5089956;28;20256;-70
2021/12/01 11:37:58;;;;;;;11.63;1.23;;;;;;;-145.19;100.00;57938.22;5089208;28;20341;-70
2021/12/01 11:40:27;;;;;;;16.40;1.20;;;;;;;-145.19;100.00;57938.22;5089171;28;20590;-70
2021/12/01 11:42:52;;;;;;;4.10;1.13;;;;;;;-145.19;100.00;57938.22;5079200;28;20032;-71
2021/12/01 11:45:19;;;;;;;10.37;1.27;;;;;;;-145.19;100.00;57938.22;5068737;28;20974;-70
2021/12/01 11:47:48;;;;;;;5.33;0.80;;;;;;;-145.19;100.00;57938.22;5082123;28;20060;-71
2021/12/01 11:50:35;;;;;;;6.30;0.97;;;;;;;-145.19;100.00;57938.22;5088243;28;20284;-70
2021/12/01 11:53:21;;;;;;;6.27;1.13;;;;;;;-145.19;100.00;57938.22;5088850;28;21094;-70
2021/12/01 11:55:53;;;;;;;4.83;0.73;;;;;;;-145.19;100.00;57938.22;5088852;28;20268;-70
2021/12/01 11:58:44;;;;;;;9.83;1.03;;;;;;;-145.19;100.00;57938.22;5088986;28;20334;-70
2021/12/01 12:01:35;;;;;;;4.27;0.80;;;;;;;-145.19;100.00;57938.22;5070552;28;20811;-70
2021/12/01 12:04:01;;;;;;;9.47;1.43;;;;;;;-145.19;100.00;57938.22;5077252;28;20275;-70
2021/12/01 12:06:26;;;;;;;9.03;0.83;;;;;;;-145.19;100.00;57938.22;5088674;28;20273;-70
2021/12/01 12:08:58;;;;;;;8.33;1.37;;;;;;;-145.19;100.00;57938.22;5087402;28;20492;-70
2021/12/01 12:11:36;;;;;;;6.80;2.00;;;;;;;-145.19;100.00;57938.22;5085706;28;20048;-70
2021/12/01 12:14:25;;;;;;;9.17;1.60;;;;;;;-145.19;100.00;57938.22;5087843;28;20968;-70
2021/12/01 12:17:10;;;;;;;4.97;0.70;;;;;;;-145.19;100.00;57938.22;5079926;28;20268;-73
2021/12/01 12:19:55;;;;;;;6.67;1.50;;;;;;;-145.19;100.00;57938.22;5087939;28;20264;-70
2021/12/01 12:22:32;;;;;;;8.03;0.77;;;;;;;-145.19;100.00;57938.22;5088662;28;20326;-70
2021/12/01 12:24:57;;;;;;;10.03;1.23;;;;;;;-145.19;100.00;57938.22;5079988;28;20276;-70
2021/12/01 12:27:31;;;;;;;5.50;1.17;;;;;;;-145.19;100.00;57938.22;5067450;28;20265;-70
2021/12/01 12:29:59;;;;;;;11.83;1.20;;;;;;;-145.19;100.00;57938.22;5066969;28;20051;-70
2021/12/01 12:32:29;;;;;;;8.83;1.10;;;;;;;-145.19;100.00;57938.22;5067708;28;20258;-70
2021/12/01 12:34:57;;;;;;;12.00;2.03;;;;;;;-145.19;100.00;57938.22;5066691;28;20765;-70
2021/12/01 12:37:25;;;;;;;5.87;1.00;;;;;;;-145.19;100.00;57938.22;5067195;28;20266;-70
2021/12/01 12:39:55;;;;;;;10.57;1.23;;;;;;;-145.19;100.00;57938.22;5067310;28;20285;-70
2021/12/01 12:42:22;;;;;;;6.17;1.40;;;;;;;-145.19;100.00;57938.22;5067062;28;20274;-70
2021/12/01 12:44:50;;;;;;;3.10;0.87;;;;;;;-145.19;100.00;57938.22;5078917;28;20333;-72
2021/12/01 12:47:44;;;;;;;10.97;1.83;;;;;;;-145.19;100.00;57938.22;5087197;28;20645;-72
2021/12/01 12:50:20;;;;;;;6.73;1.03;;;;;;;-145.19;100.00;57938.22;5087278;28;20784;-71
2021/12/01 12:52:50;;;;;;;;;;;;;;;-145.19;100.00;57938.22;5086891;28;20352;-70